createdAt,value
2023-05-09T00:03:34.032Z,49.93
2023-05-09T00:06:10.994Z,48.54
2023-05-09T00:08:38.823Z,47.84
2023-05-09T00:11:09.179Z,48.15
2023-05-09T00:13:38.181Z,47.43
2023-05-09T00:16:09.710Z,48.25
2023-05-09T00:18:41.462Z,48.22
2023-05-09T00:21:10.194Z,48.83
2023-05-09T00:23:39.598Z,49.70
2023-05-09T00:26:10.897Z,49.58
2023-05-09T00:28:44.501Z,50.90
2023-05-09T00:31:12.953Z,50.37
2023-05-09T00:33:47.217Z,50.99
2023-05-09T00:36:15.015Z,50.11
2023-05-09T00:38:44.180Z,50.26
2023-05-09T00:41:13.637Z,49.77
2023-05-09T00:43:41.719Z,49.86
2023-05-09T00:46:09.313Z,50.10
2023-05-09T00:48:43.534Z,49.69
2023-05-09T00:51:17.110Z,50.68
2023-05-09T00:53:50.609Z,49.87
2023-05-09T00:56:19.737Z,50.10
2023-05-09T00:59:00.551Z,52.72
2023-05-09T01:01:31.843Z,52.69
2023-05-09T01:04:00.480Z,52.18
2023-05-09T01:06:45.965Z,52.58
2023-05-09T01:09:47.673Z,51.47
2023-05-09T01:12:40.911Z,51.28
2023-05-09T01:15:29.939Z,51.18
2023-05-09T01:18:38.668Z,50.72
2023-05-09T01:21:15.347Z,50.45
2023-05-09T01:23:48.820Z,51.15
2023-05-09T01:26:27.366Z,50.48
2023-05-09T01:29:16.185Z,50.94
2023-05-09T01:31:50.241Z,50.38
2023-05-09T01:34:21.880Z,50.39
2023-05-09T01:36:52.466Z,50.80
2023-05-09T01:39:24.379Z,50.51
2023-05-09T01:42:00.297Z,50.62
2023-05-09T01:44:42.219Z,51.36
2023-05-09T01:47:17.055Z,51.50
2023-05-09T01:49:50.225Z,51.21
2023-05-09T01:52:20.942Z,51.49
2023-05-09T01:54:51.094Z,51.70
2023-05-09T01:57:21.043Z,51.71
2023-05-09T01:59:52.016Z,51.87
2023-05-09T02:02:20.237Z,51.00
2023-05-09T02:04:58.281Z,51.48
2023-05-09T02:07:32.039Z,52.29
2023-05-09T02:10:03.419Z,52.29
2023-05-09T02:12:31.832Z,52.35
2023-05-09T02:15:02.670Z,52.53
2023-05-09T02:17:32.578Z,52.25
2023-05-09T02:20:01.148Z,52.21
2023-05-09T02:22:29.256Z,51.61
2023-05-09T02:24:58.046Z,51.91
2023-05-09T02:27:28.449Z,53.02
2023-05-09T02:29:58.182Z,53.43
2023-05-09T02:32:30.210Z,53.03
2023-05-09T02:34:59.868Z,52.97
2023-05-09T02:37:29.206Z,52.77
2023-05-09T02:39:58.180Z,52.32
2023-05-09T02:42:27.419Z,51.88
2023-05-09T02:45:04.358Z,51.94
2023-05-09T02:47:33.346Z,51.63
2023-05-09T02:50:02.211Z,52.40
2023-05-09T02:52:31.165Z,52.67
2023-05-09T02:55:00.057Z,53.39
2023-05-09T02:57:29.641Z,53.11
2023-05-09T02:59:59.560Z,53.70
2023-05-09T03:02:28.432Z,52.72
2023-05-09T03:04:57.579Z,52.81
2023-05-09T03:07:29.161Z,52.79
2023-05-09T03:09:57.301Z,52.52
2023-05-09T03:12:25.862Z,52.72
2023-05-09T03:14:59.621Z,54.16
2023-05-09T03:17:27.916Z,54.39
2023-05-09T03:20:00.525Z,54.24
2023-05-09T03:22:29.727Z,54.03
2023-05-09T03:25:02.516Z,53.83
2023-05-09T03:27:30.124Z,53.11
2023-05-09T03:30:02.860Z,53.66
2023-05-09T03:32:30.975Z,54.60
2023-05-09T03:34:58.894Z,55.62
2023-05-09T03:37:27.729Z,55.28
2023-05-09T03:39:55.621Z,55.16
2023-05-09T03:42:26.932Z,54.30
2023-05-09T03:45:01.949Z,54.27
2023-05-09T03:47:34.871Z,53.97
2023-05-09T03:50:05.630Z,53.66
2023-05-09T03:52:34.660Z,53.42
2023-05-09T03:55:06.411Z,53.73
2023-05-09T03:57:36.352Z,54.06
2023-05-09T04:00:08.510Z,53.69
2023-05-09T04:02:45.499Z,53.44
2023-05-09T04:05:22.430Z,53.89
2023-05-09T04:07:50.864Z,53.83
2023-05-09T04:10:23.700Z,53.85
2023-05-09T04:12:57.153Z,53.90
2023-05-09T04:15:28.137Z,53.82
2023-05-09T04:18:01.753Z,53.95
2023-05-09T04:20:30.008Z,54.39
2023-05-09T04:22:59.565Z,53.38
2023-05-09T04:25:29.676Z,53.95
2023-05-09T04:27:58.042Z,54.19
2023-05-09T04:30:27.463Z,54.12
2023-05-09T04:32:56.595Z,54.21
2023-05-09T04:35:26.396Z,53.31
2023-05-09T04:37:58.422Z,53.59
2023-05-09T04:40:27.183Z,53.19
2023-05-09T04:42:59.463Z,52.74
2023-05-09T04:45:32.498Z,52.68
2023-05-09T04:48:01.639Z,52.13
2023-05-09T04:50:30.601Z,52.19
2023-05-09T04:52:58.551Z,51.79
2023-05-09T04:55:26.722Z,51.14
2023-05-09T04:57:56.005Z,51.70
2023-05-09T05:00:24.321Z,51.37
2023-05-09T05:02:51.999Z,51.27
2023-05-09T05:05:25.178Z,51.93
2023-05-09T05:08:00.950Z,51.28
2023-05-09T05:10:33.997Z,50.74
2023-05-09T05:13:07.909Z,51.25
2023-05-09T05:15:39.858Z,50.75
2023-05-09T05:18:09.960Z,50.45
2023-05-09T05:20:48.949Z,50.45
2023-05-09T05:23:19.181Z,49.75
2023-05-09T05:25:48.423Z,49.93
2023-05-09T05:28:17.154Z,49.66
2023-05-09T05:30:49.186Z,49.18
2023-05-09T05:33:17.539Z,48.39
2023-05-09T05:35:59.106Z,49.61
2023-05-09T05:38:31.306Z,48.80
2023-05-09T05:41:00.285Z,49.16
2023-05-09T05:43:32.634Z,48.49
2023-05-09T05:46:08.569Z,47.24
2023-05-09T05:48:38.211Z,47.79
2023-05-09T05:51:11.783Z,46.82
2023-05-09T05:53:41.381Z,46.75
2023-05-09T05:56:11.110Z,47.07
2023-05-09T05:58:43.624Z,45.47
2023-05-09T06:01:12.616Z,45.17
2023-05-09T06:03:42.524Z,45.57
2023-05-09T06:06:13.254Z,45.51
2023-05-09T06:08:42.096Z,43.78
2023-05-09T06:11:12.177Z,44.63
2023-05-09T06:13:48.962Z,43.00
2023-05-09T06:16:20.354Z,42.56
2023-05-09T06:18:52.766Z,43.86
2023-05-09T06:21:25.085Z,42.41
2023-05-09T06:24:05.804Z,42.31
2023-05-09T06:26:41.300Z,42.06
2023-05-09T06:29:16.691Z,40.79
2023-05-09T06:31:51.373Z,42.12
2023-05-09T06:34:19.292Z,40.91
2023-05-09T06:36:48.779Z,41.01
2023-05-09T06:39:21.377Z,40.56
2023-05-09T06:41:56.241Z,41.08
2023-05-09T06:44:33.516Z,40.53
2023-05-09T06:47:04.571Z,39.70
2023-05-09T06:49:37.848Z,39.96
2023-05-09T06:52:11.947Z,40.31
2023-05-09T06:54:49.387Z,40.82
2023-05-09T06:57:19.193Z,41.21
2023-05-09T06:59:56.787Z,40.11
2023-05-09T07:02:27.681Z,39.35
2023-05-09T07:04:59.420Z,37.82
2023-05-09T07:07:28.955Z,39.89
2023-05-09T07:10:07.361Z,38.60
2023-05-09T07:12:38.967Z,38.93
2023-05-09T07:15:07.703Z,39.76
2023-05-09T07:17:38.665Z,39.40
2023-05-09T07:20:09.013Z,38.95
2023-05-09T07:22:37.580Z,36.96
2023-05-09T07:25:09.630Z,36.59
2023-05-09T07:27:42.934Z,37.53
2023-05-09T07:30:17.004Z,36.62
2023-05-09T07:32:45.550Z,37.00
2023-05-09T07:35:16.215Z,36.27
2023-05-09T07:37:46.573Z,35.99
2023-05-09T07:40:19.588Z,35.17
2023-05-09T07:42:50.130Z,35.38
2023-05-09T07:45:18.938Z,34.25
2023-05-09T07:47:51.521Z,33.65
2023-05-09T07:50:20.220Z,34.57
2023-05-09T07:52:52.018Z,35.17
2023-05-09T07:55:35.166Z,32.76
2023-05-09T07:58:05.144Z,35.55
2023-05-09T08:00:38.993Z,33.31
2023-05-09T08:03:14.646Z,33.26
2023-05-09T08:05:45.779Z,35.02
2023-05-09T08:08:17.132Z,34.15
2023-05-09T08:10:50.892Z,33.20
2023-05-09T08:13:30.841Z,33.14
2023-05-09T08:15:59.432Z,33.03
2023-05-09T08:18:29.756Z,32.28
2023-05-09T08:21:00.646Z,33.83
2023-05-09T08:23:33.698Z,33.42
2023-05-09T08:26:02.737Z,31.79
2023-05-09T08:28:32.712Z,32.43
2023-05-09T08:31:00.305Z,32.17
2023-05-09T08:33:30.368Z,31.94
2023-05-09T08:36:01.587Z,34.71
2023-05-09T08:38:35.892Z,35.76
2023-05-09T08:41:12.217Z,33.99
2023-05-09T08:43:41.341Z,34.71
2023-05-09T08:46:11.433Z,33.03
2023-05-09T08:48:42.325Z,31.81
2023-05-09T08:51:12.451Z,32.14
2023-05-09T08:53:44.066Z,32.57
2023-05-09T08:56:12.771Z,31.83
2023-05-09T08:58:41.937Z,32.08
2023-05-09T09:01:13.852Z,32.52
2023-05-09T09:06:45.355Z,33.08
2023-05-09T09:09:21.121Z,32.75
2023-05-09T09:11:59.284Z,30.77
2023-05-09T09:14:32.329Z,30.04
2023-05-09T09:17:05.948Z,33.86
2023-05-09T09:19:45.286Z,31.74
2023-05-09T09:22:20.780Z,30.63
2023-05-09T09:24:49.496Z,30.91
2023-05-09T09:27:18.301Z,30.92
2023-05-09T09:29:46.576Z,31.62
2023-05-09T09:32:16.527Z,30.80
2023-05-09T09:34:55.678Z,29.89
2023-05-09T09:37:25.651Z,28.64
2023-05-09T09:39:58.467Z,28.05
2023-05-09T09:42:46.452Z,30.56
2023-05-09T09:45:21.655Z,28.86
2023-05-09T09:47:53.790Z,31.21
2023-05-09T09:50:28.629Z,29.51
2023-05-09T09:53:05.879Z,30.61
2023-05-09T09:55:37.339Z,31.37
2023-05-09T09:58:17.689Z,31.29
2023-05-09T10:00:48.814Z,33.25
2023-05-09T10:03:17.921Z,34.63
2023-05-09T10:05:48.498Z,30.81
2023-05-09T10:08:18.091Z,31.99
2023-05-09T10:10:49.377Z,30.11
2023-05-09T10:13:17.410Z,29.20
2023-05-09T10:15:53.548Z,28.74
2023-05-09T10:18:29.460Z,29.33
2023-05-09T10:21:05.620Z,28.11
2023-05-09T10:23:39.257Z,28.05
2023-05-09T10:26:28.839Z,27.46
2023-05-09T10:29:00.562Z,30.22
2023-05-09T10:31:33.162Z,28.38
2023-05-09T10:34:06.654Z,26.37
2023-05-09T10:36:38.255Z,28.57
2023-05-09T10:39:08.805Z,26.35
2023-05-09T10:41:37.737Z,26.37
2023-05-09T10:44:09.686Z,27.80
2023-05-09T10:46:37.960Z,31.56
2023-05-09T10:51:36.908Z,26.51
2023-05-09T10:54:15.523Z,29.38
2023-05-09T10:56:43.630Z,30.61
2023-05-09T10:59:44.790Z,31.08
2023-05-09T11:02:14.993Z,29.87
2023-05-09T11:04:42.824Z,29.43
2023-05-09T11:07:34.139Z,28.05
2023-05-09T11:10:10.808Z,32.05
2023-05-09T11:13:01.262Z,33.71
2023-05-09T11:15:30.872Z,29.49
2023-05-09T11:18:11.073Z,28.42
2023-05-09T11:20:48.014Z,27.53
2023-05-09T11:23:22.013Z,28.60
2023-05-09T11:25:53.701Z,26.49
2023-05-09T11:28:33.102Z,25.69
2023-05-09T11:31:17.349Z,25.94
2023-05-09T11:33:48.648Z,28.16
2023-05-09T11:36:35.661Z,30.71
2023-05-09T11:39:14.404Z,29.90
2023-05-09T11:41:52.821Z,31.15
2023-05-09T11:44:21.664Z,30.57
2023-05-09T11:46:50.617Z,30.53
2023-05-09T11:49:19.677Z,29.13
2023-05-09T11:51:50.526Z,27.74
2023-05-09T11:54:25.417Z,27.72
2023-05-09T11:56:59.895Z,26.55
2023-05-09T11:59:35.612Z,28.28
2023-05-09T12:02:11.556Z,27.09
2023-05-09T12:04:43.651Z,25.67
2023-05-09T12:07:13.661Z,25.12
2023-05-09T12:09:41.776Z,26.64
2023-05-09T12:12:17.613Z,27.72
2023-05-09T12:14:50.540Z,27.42
2023-05-09T12:17:18.721Z,26.90
2023-05-09T12:19:55.300Z,27.97
2023-05-09T12:22:37.873Z,30.38
2023-05-09T12:25:16.774Z,27.62
2023-05-09T12:27:49.169Z,27.64
2023-05-09T12:30:20.823Z,25.88
2023-05-09T12:32:51.514Z,26.60
2023-05-09T12:35:29.081Z,26.73
2023-05-09T12:38:11.944Z,26.22
2023-05-09T12:40:43.708Z,27.91
2023-05-09T12:43:14.662Z,29.75
2023-05-09T12:45:43.039Z,27.27
2023-05-09T12:48:19.596Z,26.58
2023-05-09T12:50:49.096Z,26.62
2023-05-09T12:53:29.424Z,26.39
2023-05-09T12:56:06.547Z,28.00
2023-05-09T12:58:37.005Z,26.50
2023-05-09T13:01:08.435Z,26.07
2023-05-09T13:03:39.708Z,29.28
2023-05-09T13:06:16.615Z,28.29
2023-05-09T13:09:02.118Z,25.40
2023-05-09T13:11:35.092Z,24.94
2023-05-09T13:14:10.995Z,27.50
2023-05-09T13:16:40.963Z,27.14
2023-05-09T13:19:10.773Z,30.63
2023-05-09T13:21:48.621Z,30.21
2023-05-09T13:24:20.229Z,31.56
2023-05-09T13:26:50.830Z,28.94
2023-05-09T13:29:22.980Z,25.30
2023-05-09T13:31:58.803Z,26.87
2023-05-09T13:34:39.407Z,29.02
2023-05-09T13:37:10.972Z,26.54
2023-05-09T13:39:46.244Z,25.93
2023-05-09T13:42:27.273Z,24.90
2023-05-09T13:44:56.790Z,26.49
2023-05-09T13:47:35.501Z,27.99
2023-05-09T13:50:09.185Z,29.88
2023-05-09T13:52:40.104Z,30.39
2023-05-09T13:55:13.027Z,30.89
2023-05-09T13:57:46.092Z,27.02
2023-05-09T14:00:18.560Z,27.62
2023-05-09T14:02:50.352Z,27.47
2023-05-09T14:05:21.233Z,26.51
2023-05-09T14:07:58.396Z,27.18
2023-05-09T14:10:27.607Z,25.93
2023-05-09T14:13:03.657Z,25.51
2023-05-09T14:15:36.477Z,26.23
2023-05-09T14:18:08.297Z,29.73
2023-05-09T14:20:38.458Z,30.79
2023-05-09T14:23:13.700Z,29.54
2023-05-09T14:25:48.601Z,28.57
2023-05-09T14:28:21.137Z,28.90
2023-05-09T14:30:55.788Z,27.38
2023-05-09T14:33:32.247Z,26.78
2023-05-09T14:36:04.637Z,29.24
2023-05-09T14:38:34.293Z,28.42
2023-05-09T14:41:05.367Z,28.82
2023-05-09T14:43:36.656Z,28.38
2023-05-09T14:46:08.244Z,28.20
2023-05-09T14:48:45.686Z,28.44
2023-05-09T14:51:15.484Z,29.64
2023-05-09T14:53:44.599Z,29.29
2023-05-09T14:56:19.557Z,29.30
2023-05-09T14:58:52.791Z,30.44
2023-05-09T15:01:22.413Z,31.17
2023-05-09T15:03:52.265Z,30.07
2023-05-09T15:06:26.641Z,29.61
2023-05-09T15:08:56.817Z,30.27
2023-05-09T15:11:30.896Z,28.89
2023-05-09T15:14:16.018Z,31.60
2023-05-09T15:16:50.229Z,31.62
2023-05-09T15:19:20.765Z,32.84
2023-05-09T15:21:52.345Z,31.32
2023-05-09T15:24:29.121Z,28.83
2023-05-09T15:27:15.265Z,27.26
2023-05-09T15:29:46.123Z,29.78
2023-05-09T15:32:19.642Z,29.36
2023-05-09T15:34:52.970Z,27.65
2023-05-09T15:37:28.411Z,27.34
2023-05-09T15:40:01.048Z,27.16
2023-05-09T15:42:38.371Z,31.33
2023-05-09T15:45:11.306Z,32.67
2023-05-09T15:47:45.063Z,28.92
2023-05-09T15:50:20.154Z,29.77
2023-05-09T15:52:52.844Z,29.77
2023-05-09T15:55:21.828Z,29.20
2023-05-09T15:57:53.526Z,30.04
2023-05-09T16:00:27.277Z,28.40
2023-05-09T16:02:58.725Z,29.21
2023-05-09T16:05:32.138Z,29.11
2023-05-09T16:08:05.424Z,28.28
2023-05-09T16:10:38.911Z,27.64
2023-05-09T16:13:12.465Z,26.19
2023-05-09T16:15:48.884Z,27.63
2023-05-09T16:18:21.243Z,28.43
2023-05-09T16:20:52.382Z,28.01
2023-05-09T16:23:21.936Z,27.95
2023-05-09T16:25:50.407Z,28.00
2023-05-09T16:28:19.967Z,28.84
2023-05-09T16:30:52.259Z,28.48
2023-05-09T16:33:21.705Z,28.39
2023-05-09T16:35:54.061Z,28.80
2023-05-09T16:38:33.079Z,28.88
2023-05-09T16:41:04.006Z,29.68
2023-05-09T16:43:33.557Z,30.48
2023-05-09T16:46:02.702Z,30.80
2023-05-09T16:48:30.936Z,31.93
2023-05-09T16:50:58.895Z,32.66
2023-05-09T16:53:35.909Z,32.30
2023-05-09T16:56:07.952Z,34.02
2023-05-09T16:58:36.662Z,33.84
2023-05-09T17:01:13.705Z,34.36
2023-05-09T17:03:43.538Z,33.29
2023-05-09T17:06:17.719Z,33.16
2023-05-09T17:08:49.897Z,31.51
2023-05-09T17:11:25.164Z,31.13
2023-05-09T17:13:56.224Z,30.96
2023-05-09T17:16:26.526Z,33.77
2023-05-09T17:19:00.298Z,32.80
2023-05-09T17:21:32.631Z,32.13
2023-05-09T17:24:02.569Z,32.36
2023-05-09T17:26:33.710Z,31.78
2023-05-09T17:29:07.297Z,31.63
2023-05-09T17:31:37.943Z,31.01
2023-05-09T17:34:09.520Z,31.09
2023-05-09T17:36:39.019Z,32.46
2023-05-09T17:39:09.984Z,32.91
2023-05-09T17:41:41.427Z,32.83
2023-05-09T17:44:14.202Z,32.72
2023-05-09T17:46:45.217Z,33.12
2023-05-09T17:49:15.156Z,32.95
2023-05-09T17:51:48.096Z,33.07
2023-05-09T17:54:20.594Z,34.02
2023-05-09T17:57:00.464Z,33.91
2023-05-09T17:59:31.257Z,33.19
2023-05-09T18:02:03.769Z,33.52
2023-05-09T18:04:35.583Z,33.90
2023-05-09T18:07:15.997Z,33.77
2023-05-09T18:09:56.206Z,34.39
2023-05-09T18:12:30.037Z,34.70
2023-05-09T18:14:59.831Z,34.53
2023-05-09T18:17:30.466Z,35.14
2023-05-09T18:19:59.972Z,35.48
2023-05-09T18:22:30.460Z,35.64
2023-05-09T18:25:00.422Z,35.51
2023-05-09T18:27:30.126Z,35.78
2023-05-09T18:29:59.880Z,35.79
2023-05-09T18:32:33.875Z,36.29
2023-05-09T18:35:06.509Z,36.29
2023-05-09T18:37:37.451Z,36.17
2023-05-09T18:40:07.384Z,36.38
2023-05-09T18:42:36.947Z,37.11
2023-05-09T18:45:06.384Z,36.92
2023-05-09T18:47:36.813Z,37.15
2023-05-09T18:50:09.987Z,37.02
2023-05-09T18:52:38.593Z,36.97
2023-05-09T18:55:09.647Z,36.94
2023-05-09T18:57:37.332Z,37.89
2023-05-09T19:00:07.797Z,37.79
2023-05-09T19:02:36.454Z,37.59
2023-05-09T19:05:08.575Z,37.72
2023-05-09T19:07:38.585Z,38.28
2023-05-09T19:10:08.911Z,38.22
2023-05-09T19:12:36.847Z,38.04
2023-05-09T19:15:05.637Z,38.65
2023-05-09T19:17:33.929Z,39.08
2023-05-09T19:20:03.292Z,38.47
2023-05-09T19:22:36.190Z,39.08
2023-05-09T19:25:06.728Z,39.44
2023-05-09T19:27:35.797Z,38.47
2023-05-09T19:30:06.831Z,39.06
2023-05-09T19:32:41.288Z,38.98
2023-05-09T19:35:11.483Z,39.17
2023-05-09T19:37:39.675Z,38.89
2023-05-09T19:40:12.228Z,38.28
2023-05-09T19:42:45.257Z,39.26
2023-05-09T19:45:13.118Z,39.41
2023-05-09T19:47:41.803Z,39.96
2023-05-09T19:50:10.789Z,38.84
2023-05-09T19:52:38.854Z,39.15
2023-05-09T19:55:14.005Z,40.08
2023-05-09T19:57:48.575Z,39.79
2023-05-09T20:00:18.719Z,38.42
2023-05-09T20:02:47.960Z,38.22
2023-05-09T20:05:22.360Z,38.39
2023-05-09T20:07:51.826Z,38.71
2023-05-09T20:10:19.587Z,38.49
2023-05-09T20:12:48.511Z,38.57
2023-05-09T20:15:19.940Z,38.29
2023-05-09T20:17:50.066Z,38.13
2023-05-09T20:20:18.468Z,38.59
2023-05-09T20:22:48.078Z,39.18
2023-05-09T20:25:16.206Z,39.22
2023-05-09T20:27:43.624Z,39.37
2023-05-09T20:30:14.451Z,39.43
2023-05-09T20:32:43.539Z,40.24
2023-05-09T20:35:12.314Z,39.87
2023-05-09T20:37:40.833Z,40.08
2023-05-09T20:40:10.534Z,40.16
2023-05-09T20:42:39.619Z,40.33
2023-05-09T20:45:09.585Z,40.61
2023-05-09T20:47:37.680Z,41.54
2023-05-09T20:50:09.462Z,40.75
2023-05-09T20:52:38.279Z,41.23
2023-05-09T20:55:09.398Z,41.30
2023-05-09T20:57:48.332Z,41.88
2023-05-09T21:00:17.790Z,41.98
2023-05-09T21:02:46.695Z,41.97
2023-05-09T21:05:16.967Z,42.17
2023-05-09T21:07:46.171Z,42.08
2023-05-09T21:10:15.183Z,42.34
2023-05-09T21:12:44.072Z,42.51
2023-05-09T21:15:12.258Z,42.92
2023-05-09T21:17:40.175Z,43.05
2023-05-09T21:20:11.626Z,43.46
2023-05-09T21:22:40.160Z,43.37
2023-05-09T21:25:09.255Z,43.29
2023-05-09T21:27:41.018Z,43.90
2023-05-09T21:30:10.840Z,44.07
2023-05-09T21:32:39.071Z,44.23
2023-05-09T21:35:11.775Z,44.23
2023-05-09T21:37:46.021Z,45.34
2023-05-09T21:40:14.710Z,45.35
2023-05-09T21:42:44.698Z,45.21
2023-05-09T21:45:13.566Z,45.19
2023-05-09T21:47:41.328Z,44.69
2023-05-09T21:50:11.311Z,45.74
2023-05-09T21:52:39.245Z,44.69
2023-05-09T21:55:10.904Z,45.29
2023-05-09T21:57:39.020Z,44.58
2023-05-09T22:00:14.682Z,45.60
2023-05-09T22:02:43.846Z,44.96
2023-05-09T22:05:12.386Z,44.36
2023-05-09T22:07:40.436Z,44.18
2023-05-09T22:10:09.762Z,44.69
2023-05-09T22:12:37.737Z,44.71
2023-05-09T22:15:07.981Z,45.36
2023-05-09T22:17:39.515Z,45.30
2023-05-09T22:20:08.656Z,44.74
2023-05-09T22:22:39.292Z,45.18
2023-05-09T22:25:10.410Z,45.82
2023-05-09T22:27:40.201Z,45.12
2023-05-09T22:30:12.676Z,45.46
2023-05-09T22:32:43.832Z,44.88
2023-05-09T22:35:11.796Z,45.22
2023-05-09T22:37:39.631Z,44.74
2023-05-09T22:40:08.270Z,44.81
2023-05-09T22:42:37.005Z,44.65
2023-05-09T22:45:06.056Z,44.75
2023-05-09T22:47:34.103Z,44.05
2023-05-09T22:50:02.379Z,44.38
2023-05-09T22:52:33.664Z,44.57
2023-05-09T22:55:07.345Z,44.97
2023-05-09T22:57:36.425Z,45.22
2023-05-09T23:00:06.125Z,45.89
2023-05-09T23:02:36.796Z,45.78
2023-05-09T23:05:05.796Z,46.35
2023-05-09T23:07:33.442Z,46.21
2023-05-09T23:10:01.604Z,46.91
2023-05-09T23:12:30.902Z,47.96
2023-05-09T23:14:59.277Z,48.70
2023-05-09T23:17:30.245Z,48.33
2023-05-09T23:20:01.005Z,48.45
2023-05-09T23:22:30.376Z,48.45
2023-05-09T23:25:01.168Z,48.95
2023-05-09T23:27:31.803Z,48.43
2023-05-09T23:30:00.112Z,49.02
2023-05-09T23:32:30.596Z,50.31
2023-05-09T23:35:01.507Z,49.47
2023-05-09T23:37:30.003Z,49.23
2023-05-09T23:40:04.459Z,49.68
2023-05-09T23:42:32.169Z,49.81
2023-05-09T23:45:00.237Z,50.19
2023-05-09T23:47:28.695Z,50.01
2023-05-09T23:49:56.713Z,49.86
2023-05-09T23:52:25.424Z,50.30
2023-05-09T23:54:59.090Z,50.31
2023-05-09T23:57:28.302Z,49.85
2023-05-09T23:59:56.144Z,50.13
